sensor_id;sensor_type;location;lat;lon;timestamp;P1;durP1;ratioP1;P2;durP2;ratioP2
73474;SDS011;61711;52.266;10.542;2022-10-16T00:00:44;2.20;;;2.00;;
73474;SDS011;61711;52.266;10.542;2022-10-16T00:03:10;2.25;;;2.05;;
73474;SDS011;61711;52.266;10.542;2022-10-16T00:05:43;5.25;;;2.22;;
73474;SDS011;61711;52.266;10.542;2022-10-16T00:08:10;2.90;;;2.10;;
73474;SDS011;61711;52.266;10.542;2022-10-16T00:10:36;4.30;;;2.20;;
73474;SDS011;61711;52.266;10.542;2022-10-16T00:13:03;3.03;;;2.15;;
73474;SDS011;61711;52.266;10.542;2022-10-16T00:15:29;3.58;;;2.38;;
73474;SDS011;61711;52.266;10.542;2022-10-16T00:17:55;3.08;;;2.20;;
73474;SDS011;61711;52.266;10.542;2022-10-16T00:20:21;5.72;;;2.50;;
73474;SDS011;61711;52.266;10.542;2022-10-16T00:22:47;3.47;;;2.30;;
73474;SDS011;61711;52.266;10.542;2022-10-16T00:25:13;2.60;;;2.25;;
73474;SDS011;61711;52.266;10.542;2022-10-16T00:27:39;3.13;;;2.40;;
73474;SDS011;61711;52.266;10.542;2022-10-16T00:30:06;4.40;;;2.63;;
73474;SDS011;61711;52.266;10.542;2022-10-16T00:32:33;5.93;;;2.70;;
73474;SDS011;61711;52.266;10.542;2022-10-16T00:34:59;3.72;;;2.45;;
73474;SDS011;61711;52.266;10.542;2022-10-16T00:37:25;3.92;;;2.20;;
73474;SDS011;61711;52.266;10.542;2022-10-16T00:39:51;2.75;;;2.50;;
73474;SDS011;61711;52.266;10.542;2022-10-16T00:42:17;3.03;;;2.35;;
73474;SDS011;61711;52.266;10.542;2022-10-16T00:47:32;3.03;;;2.42;;
73474;SDS011;61711;52.266;10.542;2022-10-16T00:50:06;5.55;;;2.40;;
73474;SDS011;61711;52.266;10.542;2022-10-16T00:52:33;3.85;;;2.17;;
73474;SDS011;61711;52.266;10.542;2022-10-16T00:54:59;4.35;;;2.22;;
73474;SDS011;61711;52.266;10.542;2022-10-16T00:57:25;3.17;;;2.22;;
73474;SDS011;61711;52.266;10.542;2022-10-16T00:59:51;5.35;;;2.30;;
73474;SDS011;61711;52.266;10.542;2022-10-16T01:02:18;3.03;;;2.45;;
73474;SDS011;61711;52.266;10.542;2022-10-16T01:04:46;5.53;;;2.40;;
73474;SDS011;61711;52.266;10.542;2022-10-16T01:12:36;3.67;;;2.53;;
73474;SDS011;61711;52.266;10.542;2022-10-16T01:15:09;3.80;;;2.38;;
73474;SDS011;61711;52.266;10.542;2022-10-16T01:20:04;3.42;;;2.80;;
73474;SDS011;61711;52.266;10.542;2022-10-16T01:22:39;3.30;;;2.50;;
73474;SDS011;61711;52.266;10.542;2022-10-16T01:25:09;2.22;;;2.03;;
73474;SDS011;61711;52.266;10.542;2022-10-16T01:27:37;3.63;;;2.40;;
73474;SDS011;61711;52.266;10.542;2022-10-16T01:30:18;3.63;;;2.25;;
73474;SDS011;61711;52.266;10.542;2022-10-16T01:32:50;2.22;;;2.03;;
73474;SDS011;61711;52.266;10.542;2022-10-16T01:35:21;6.43;;;2.50;;
73474;SDS011;61711;52.266;10.542;2022-10-16T01:37:57;3.53;;;2.28;;
73474;SDS011;61711;52.266;10.542;2022-10-16T01:40:26;2.70;;;2.33;;
73474;SDS011;61711;52.266;10.542;2022-10-16T01:42:54;2.50;;;2.20;;
73474;SDS011;61711;52.266;10.542;2022-10-16T01:45:21;3.13;;;2.30;;
73474;SDS011;61711;52.266;10.542;2022-10-16T01:47:47;2.65;;;2.25;;
73474;SDS011;61711;52.266;10.542;2022-10-16T01:50:14;2.70;;;2.30;;
73474;SDS011;61711;52.266;10.542;2022-10-16T01:52:42;3.45;;;2.22;;
73474;SDS011;61711;52.266;10.542;2022-10-16T01:55:09;2.30;;;2.10;;
73474;SDS011;61711;52.266;10.542;2022-10-16T01:57:36;3.28;;;2.30;;
73474;SDS011;61711;52.266;10.542;2022-10-16T02:00:05;3.33;;;2.63;;
73474;SDS011;61711;52.266;10.542;2022-10-16T02:02:33;4.40;;;2.28;;
73474;SDS011;61711;52.266;10.542;2022-10-16T02:05:05;4.50;;;2.47;;
73474;SDS011;61711;52.266;10.542;2022-10-16T02:07:34;3.08;;;2.33;;
73474;SDS011;61711;52.266;10.542;2022-10-16T02:10:00;3.03;;;2.38;;
73474;SDS011;61711;52.266;10.542;2022-10-16T02:12:31;3.90;;;2.63;;
73474;SDS011;61711;52.266;10.542;2022-10-16T02:14:59;3.10;;;2.50;;
73474;SDS011;61711;52.266;10.542;2022-10-16T02:17:25;3.78;;;2.47;;
73474;SDS011;61711;52.266;10.542;2022-10-16T02:19:52;3.25;;;2.78;;
73474;SDS011;61711;52.266;10.542;2022-10-16T02:22:32;6.72;;;2.65;;
73474;SDS011;61711;52.266;10.542;2022-10-16T02:25:11;3.83;;;2.50;;
73474;SDS011;61711;52.266;10.542;2022-10-16T02:27:40;5.38;;;2.30;;
73474;SDS011;61711;52.266;10.542;2022-10-16T02:30:14;5.40;;;2.42;;
73474;SDS011;61711;52.266;10.542;2022-10-16T02:32:42;3.30;;;2.50;;
73474;SDS011;61711;52.266;10.542;2022-10-16T02:35:10;3.15;;;2.30;;
73474;SDS011;61711;52.266;10.542;2022-10-16T02:37:36;4.38;;;2.40;;
73474;SDS011;61711;52.266;10.542;2022-10-16T02:40:02;3.03;;;2.47;;
73474;SDS011;61711;52.266;10.542;2022-10-16T02:42:33;4.47;;;2.72;;
73474;SDS011;61711;52.266;10.542;2022-10-16T02:45:00;5.85;;;2.55;;
73474;SDS011;61711;52.266;10.542;2022-10-16T02:47:26;3.92;;;2.60;;
73474;SDS011;61711;52.266;10.542;2022-10-16T02:49:52;3.92;;;2.60;;
73474;SDS011;61711;52.266;10.542;2022-10-16T02:52:18;5.53;;;2.90;;
73474;SDS011;61711;52.266;10.542;2022-10-16T02:54:44;5.72;;;2.95;;
73474;SDS011;61711;52.266;10.542;2022-10-16T02:57:10;8.80;;;3.28;;
73474;SDS011;61711;52.266;10.542;2022-10-16T02:59:36;7.65;;;3.45;;
73474;SDS011;61711;52.266;10.542;2022-10-16T03:02:03;6.57;;;3.20;;
73474;SDS011;61711;52.266;10.542;2022-10-16T03:04:28;6.45;;;2.85;;
73474;SDS011;61711;52.266;10.542;2022-10-16T03:06:54;5.03;;;3.20;;
73474;SDS011;61711;52.266;10.542;2022-10-16T03:09:21;5.60;;;2.78;;
73474;SDS011;61711;52.266;10.542;2022-10-16T03:11:47;4.90;;;2.90;;
73474;SDS011;61711;52.266;10.542;2022-10-16T03:14:13;4.03;;;2.90;;
73474;SDS011;61711;52.266;10.542;2022-10-16T03:16:39;4.47;;;3.00;;
73474;SDS011;61711;52.266;10.542;2022-10-16T03:19:05;6.38;;;3.13;;
73474;SDS011;61711;52.266;10.542;2022-10-16T03:21:31;3.80;;;2.85;;
73474;SDS011;61711;52.266;10.542;2022-10-16T03:23:57;7.00;;;3.10;;
73474;SDS011;61711;52.266;10.542;2022-10-16T03:26:23;4.03;;;2.88;;
73474;SDS011;61711;52.266;10.542;2022-10-16T03:28:49;4.70;;;3.22;;
73474;SDS011;61711;52.266;10.542;2022-10-16T03:31:15;6.40;;;2.97;;
73474;SDS011;61711;52.266;10.542;2022-10-16T03:33:41;4.85;;;3.17;;
73474;SDS011;61711;52.266;10.542;2022-10-16T03:36:07;4.65;;;3.08;;
73474;SDS011;61711;52.266;10.542;2022-10-16T03:38:33;6.70;;;3.53;;
73474;SDS011;61711;52.266;10.542;2022-10-16T03:40:59;8.13;;;3.38;;
73474;SDS011;61711;52.266;10.542;2022-10-16T03:43:25;5.13;;;3.15;;
73474;SDS011;61711;52.266;10.542;2022-10-16T03:45:51;4.95;;;3.38;;
73474;SDS011;61711;52.266;10.542;2022-10-16T03:48:18;6.05;;;3.40;;
73474;SDS011;61711;52.266;10.542;2022-10-16T03:50:44;6.80;;;2.95;;
73474;SDS011;61711;52.266;10.542;2022-10-16T03:53:11;5.40;;;3.17;;
73474;SDS011;61711;52.266;10.542;2022-10-16T03:55:37;6.65;;;3.15;;
73474;SDS011;61711;52.266;10.542;2022-10-16T03:58:03;4.50;;;3.03;;
73474;SDS011;61711;52.266;10.542;2022-10-16T04:00:29;5.13;;;3.10;;
73474;SDS011;61711;52.266;10.542;2022-10-16T04:02:55;5.20;;;2.70;;
73474;SDS011;61711;52.266;10.542;2022-10-16T04:05:21;7.30;;;3.90;;
73474;SDS011;61711;52.266;10.542;2022-10-16T04:07:47;5.70;;;3.10;;
73474;SDS011;61711;52.266;10.542;2022-10-16T04:10:13;5.07;;;3.08;;
73474;SDS011;61711;52.266;10.542;2022-10-16T04:12:39;6.75;;;3.15;;
73474;SDS011;61711;52.266;10.542;2022-10-16T04:15:05;5.70;;;3.10;;
73474;SDS011;61711;52.266;10.542;2022-10-16T04:17:31;5.30;;;3.42;;
73474;SDS011;61711;52.266;10.542;2022-10-16T04:19:57;4.72;;;3.10;;
73474;SDS011;61711;52.266;10.542;2022-10-16T04:22:23;4.47;;;2.97;;
73474;SDS011;61711;52.266;10.542;2022-10-16T04:24:49;7.53;;;3.30;;
73474;SDS011;61711;52.266;10.542;2022-10-16T04:27:15;5.05;;;3.22;;
73474;SDS011;61711;52.266;10.542;2022-10-16T04:29:42;5.35;;;3.25;;
73474;SDS011;61711;52.266;10.542;2022-10-16T04:32:08;5.68;;;3.45;;
73474;SDS011;61711;52.266;10.542;2022-10-16T04:34:35;5.55;;;3.15;;
73474;SDS011;61711;52.266;10.542;2022-10-16T04:37:01;4.20;;;2.50;;
73474;SDS011;61711;52.266;10.542;2022-10-16T04:39:27;3.78;;;2.92;;
73474;SDS011;61711;52.266;10.542;2022-10-16T04:41:53;5.50;;;2.83;;
73474;SDS011;61711;52.266;10.542;2022-10-16T04:44:19;6.78;;;3.25;;
73474;SDS011;61711;52.266;10.542;2022-10-16T04:46:45;3.70;;;2.90;;
73474;SDS011;61711;52.266;10.542;2022-10-16T04:49:11;3.60;;;2.40;;
73474;SDS011;61711;52.266;10.542;2022-10-16T04:51:37;4.75;;;2.67;;
73474;SDS011;61711;52.266;10.542;2022-10-16T04:54:03;4.20;;;2.78;;
73474;SDS011;61711;52.266;10.542;2022-10-16T04:56:29;2.92;;;2.63;;
73474;SDS011;61711;52.266;10.542;2022-10-16T04:58:55;5.70;;;3.20;;
73474;SDS011;61711;52.266;10.542;2022-10-16T05:01:21;4.47;;;3.10;;
73474;SDS011;61711;52.266;10.542;2022-10-16T05:03:47;5.03;;;3.45;;
73474;SDS011;61711;52.266;10.542;2022-10-16T05:06:14;4.75;;;3.15;;
73474;SDS011;61711;52.266;10.542;2022-10-16T05:08:40;6.88;;;3.17;;
73474;SDS011;61711;52.266;10.542;2022-10-16T05:11:06;3.20;;;2.88;;
73474;SDS011;61711;52.266;10.542;2022-10-16T05:13:32;3.70;;;2.88;;
73474;SDS011;61711;52.266;10.542;2022-10-16T05:15:58;5.45;;;3.60;;
73474;SDS011;61711;52.266;10.542;2022-10-16T05:18:24;4.28;;;3.25;;
73474;SDS011;61711;52.266;10.542;2022-10-16T05:20:50;4.78;;;3.38;;
73474;SDS011;61711;52.266;10.542;2022-10-16T05:23:16;5.68;;;3.55;;
73474;SDS011;61711;52.266;10.542;2022-10-16T05:25:42;4.47;;;3.20;;
73474;SDS011;61711;52.266;10.542;2022-10-16T05:28:08;4.82;;;3.30;;
73474;SDS011;61711;52.266;10.542;2022-10-16T05:30:34;4.15;;;3.05;;
73474;SDS011;61711;52.266;10.542;2022-10-16T05:33:02;5.55;;;3.08;;
73474;SDS011;61711;52.266;10.542;2022-10-16T05:35:28;6.78;;;3.45;;
73474;SDS011;61711;52.266;10.542;2022-10-16T05:37:54;4.60;;;3.42;;
73474;SDS011;61711;52.266;10.542;2022-10-16T05:40:20;6.95;;;3.50;;
73474;SDS011;61711;52.266;10.542;2022-10-16T05:42:46;7.05;;;3.78;;
73474;SDS011;61711;52.266;10.542;2022-10-16T05:45:12;4.82;;;3.50;;
73474;SDS011;61711;52.266;10.542;2022-10-16T05:47:38;4.05;;;3.50;;
73474;SDS011;61711;52.266;10.542;2022-10-16T05:50:05;4.35;;;3.60;;
73474;SDS011;61711;52.266;10.542;2022-10-16T05:52:31;6.68;;;3.90;;
73474;SDS011;61711;52.266;10.542;2022-10-16T05:54:57;4.72;;;3.83;;
73474;SDS011;61711;52.266;10.542;2022-10-16T05:57:23;6.25;;;3.75;;
73474;SDS011;61711;52.266;10.542;2022-10-16T05:59:49;4.78;;;3.67;;
73474;SDS011;61711;52.266;10.542;2022-10-16T06:02:15;5.78;;;3.80;;
73474;SDS011;61711;52.266;10.542;2022-10-16T06:04:41;4.85;;;3.42;;
73474;SDS011;61711;52.266;10.542;2022-10-16T06:07:07;5.03;;;3.67;;
73474;SDS011;61711;52.266;10.542;2022-10-16T06:09:33;5.00;;;3.80;;
73474;SDS011;61711;52.266;10.542;2022-10-16T06:12:00;3.75;;;3.38;;
73474;SDS011;61711;52.266;10.542;2022-10-16T06:14:26;5.13;;;3.75;;
73474;SDS011;61711;52.266;10.542;2022-10-16T06:16:52;7.57;;;3.85;;
73474;SDS011;61711;52.266;10.542;2022-10-16T06:19:18;4.60;;;3.70;;
73474;SDS011;61711;52.266;10.542;2022-10-16T06:21:44;5.15;;;3.85;;
73474;SDS011;61711;52.266;10.542;2022-10-16T06:24:10;5.22;;;4.00;;
73474;SDS011;61711;52.266;10.542;2022-10-16T06:26:36;7.70;;;4.07;;
73474;SDS011;61711;52.266;10.542;2022-10-16T06:29:03;5.03;;;3.63;;
73474;SDS011;61711;52.266;10.542;2022-10-16T06:31:29;6.10;;;3.80;;
73474;SDS011;61711;52.266;10.542;2022-10-16T06:33:58;5.32;;;3.78;;
73474;SDS011;61711;52.266;10.542;2022-10-16T06:36:25;5.65;;;3.90;;
73474;SDS011;61711;52.266;10.542;2022-10-16T06:38:51;5.40;;;4.05;;
73474;SDS011;61711;52.266;10.542;2022-10-16T06:41:19;5.45;;;3.35;;
73474;SDS011;61711;52.266;10.542;2022-10-16T06:43:45;3.80;;;3.35;;
73474;SDS011;61711;52.266;10.542;2022-10-16T06:46:12;5.05;;;3.38;;
73474;SDS011;61711;52.266;10.542;2022-10-16T06:48:38;4.53;;;3.13;;
73474;SDS011;61711;52.266;10.542;2022-10-16T06:51:05;6.60;;;3.40;;
73474;SDS011;61711;52.266;10.542;2022-10-16T06:53:33;3.78;;;3.30;;
73474;SDS011;61711;52.266;10.542;2022-10-16T06:56:09;3.42;;;3.05;;
73474;SDS011;61711;52.266;10.542;2022-10-16T06:58:35;4.32;;;3.30;;
73474;SDS011;61711;52.266;10.542;2022-10-16T07:01:01;3.20;;;2.90;;
73474;SDS011;61711;52.266;10.542;2022-10-16T07:03:27;7.70;;;3.58;;
73474;SDS011;61711;52.266;10.542;2022-10-16T07:05:53;5.68;;;3.55;;
73474;SDS011;61711;52.266;10.542;2022-10-16T07:08:19;4.78;;;3.50;;
73474;SDS011;61711;52.266;10.542;2022-10-16T07:10:45;4.85;;;3.58;;
73474;SDS011;61711;52.266;10.542;2022-10-16T07:13:11;4.88;;;3.38;;
73474;SDS011;61711;52.266;10.542;2022-10-16T07:15:40;5.55;;;3.25;;
73474;SDS011;61711;52.266;10.542;2022-10-16T07:18:07;4.30;;;2.80;;
73474;SDS011;61711;52.266;10.542;2022-10-16T07:20:33;4.70;;;3.15;;
73474;SDS011;61711;52.266;10.542;2022-10-16T07:22:59;3.65;;;3.25;;
73474;SDS011;61711;52.266;10.542;2022-10-16T07:25:25;5.78;;;3.17;;
73474;SDS011;61711;52.266;10.542;2022-10-16T07:27:51;4.65;;;3.28;;
73474;SDS011;61711;52.266;10.542;2022-10-16T07:30:17;4.60;;;3.13;;
73474;SDS011;61711;52.266;10.542;2022-10-16T07:32:43;5.93;;;3.33;;
73474;SDS011;61711;52.266;10.542;2022-10-16T07:35:09;4.88;;;3.10;;
73474;SDS011;61711;52.266;10.542;2022-10-16T07:37:35;4.07;;;3.10;;
73474;SDS011;61711;52.266;10.542;2022-10-16T07:40:01;4.75;;;3.38;;
73474;SDS011;61711;52.266;10.542;2022-10-16T07:42:27;4.47;;;2.88;;
73474;SDS011;61711;52.266;10.542;2022-10-16T07:44:54;4.40;;;2.72;;
73474;SDS011;61711;52.266;10.542;2022-10-16T07:47:20;5.18;;;2.72;;
73474;SDS011;61711;52.266;10.542;2022-10-16T07:49:46;2.95;;;2.33;;
73474;SDS011;61711;52.266;10.542;2022-10-16T07:52:12;6.35;;;2.80;;
73474;SDS011;61711;52.266;10.542;2022-10-16T07:54:38;5.57;;;2.83;;
73474;SDS011;61711;52.266;10.542;2022-10-16T07:57:04;3.45;;;2.70;;
73474;SDS011;61711;52.266;10.542;2022-10-16T07:59:30;5.93;;;2.45;;
73474;SDS011;61711;52.266;10.542;2022-10-16T08:01:56;2.55;;;2.20;;
73474;SDS011;61711;52.266;10.542;2022-10-16T08:04:22;3.47;;;2.40;;
73474;SDS011;61711;52.266;10.542;2022-10-16T08:06:48;3.72;;;2.55;;
73474;SDS011;61711;52.266;10.542;2022-10-16T08:09:14;4.00;;;2.42;;
73474;SDS011;61711;52.266;10.542;2022-10-16T08:11:40;3.13;;;2.50;;
73474;SDS011;61711;52.266;10.542;2022-10-16T08:14:06;2.78;;;2.45;;
73474;SDS011;61711;52.266;10.542;2022-10-16T08:16:32;3.75;;;2.33;;
73474;SDS011;61711;52.266;10.542;2022-10-16T08:18:58;6.63;;;2.30;;
73474;SDS011;61711;52.266;10.542;2022-10-16T08:21:24;2.65;;;2.20;;
73474;SDS011;61711;52.266;10.542;2022-10-16T08:23:51;3.45;;;2.38;;
73474;SDS011;61711;52.266;10.542;2022-10-16T08:26:17;4.20;;;2.78;;
73474;SDS011;61711;52.266;10.542;2022-10-16T08:28:44;6.47;;;2.65;;
73474;SDS011;61711;52.266;10.542;2022-10-16T08:31:11;4.15;;;2.47;;
73474;SDS011;61711;52.266;10.542;2022-10-16T08:33:37;6.15;;;2.53;;
73474;SDS011;61711;52.266;10.542;2022-10-16T08:36:04;3.72;;;2.60;;
73474;SDS011;61711;52.266;10.542;2022-10-16T08:38:31;3.58;;;1.90;;
73474;SDS011;61711;52.266;10.542;2022-10-16T08:41:00;2.10;;;1.90;;
73474;SDS011;61711;52.266;10.542;2022-10-16T08:43:34;2.67;;;2.05;;
73474;SDS011;61711;52.266;10.542;2022-10-16T08:48:35;2.58;;;1.95;;
73474;SDS011;61711;52.266;10.542;2022-10-16T08:51:02;5.05;;;2.25;;
73474;SDS011;61711;52.266;10.542;2022-10-16T08:53:30;2.17;;;1.88;;
73474;SDS011;61711;52.266;10.542;2022-10-16T08:55:57;4.85;;;2.05;;
73474;SDS011;61711;52.266;10.542;2022-10-16T08:58:27;3.58;;;2.20;;
73474;SDS011;61711;52.266;10.542;2022-10-16T09:00:54;2.53;;;1.67;;
73474;SDS011;61711;52.266;10.542;2022-10-16T09:08:37;2.17;;;1.67;;
73474;SDS011;61711;52.266;10.542;2022-10-16T09:11:14;3.05;;;1.95;;
73474;SDS011;61711;52.266;10.542;2022-10-16T09:21:40;3.60;;;1.48;;
73474;SDS011;61711;52.266;10.542;2022-10-16T09:24:14;3.42;;;1.40;;
73474;SDS011;61711;52.266;10.542;2022-10-16T09:26:41;2.80;;;1.70;;
73474;SDS011;61711;52.266;10.542;2022-10-16T09:29:14;3.28;;;1.63;;
73474;SDS011;61711;52.266;10.542;2022-10-16T09:34:20;2.22;;;1.60;;
73474;SDS011;61711;52.266;10.542;2022-10-16T09:36:47;3.67;;;1.70;;
73474;SDS011;61711;52.266;10.542;2022-10-16T09:39:13;3.83;;;1.50;;
73474;SDS011;61711;52.266;10.542;2022-10-16T09:41:40;1.50;;;1.40;;
73474;SDS011;61711;52.266;10.542;2022-10-16T09:44:17;3.60;;;1.40;;
73474;SDS011;61711;52.266;10.542;2022-10-16T09:46:44;2.30;;;1.40;;
73474;SDS011;61711;52.266;10.542;2022-10-16T09:49:23;1.83;;;1.30;;
73474;SDS011;61711;52.266;10.542;2022-10-16T09:51:50;1.55;;;1.45;;
73474;SDS011;61711;52.266;10.542;2022-10-16T09:54:19;2.88;;;1.40;;
73474;SDS011;61711;52.266;10.542;2022-10-16T09:56:45;1.40;;;1.30;;
73474;SDS011;61711;52.266;10.542;2022-10-16T09:59:20;2.15;;;1.30;;
73474;SDS011;61711;52.266;10.542;2022-10-16T10:01:49;1.65;;;1.40;;
73474;SDS011;61711;52.266;10.542;2022-10-16T10:04:16;1.35;;;1.25;;
73474;SDS011;61711;52.266;10.542;2022-10-16T10:06:44;1.48;;;1.27;;
73474;SDS011;61711;52.266;10.542;2022-10-16T10:09:29;2.72;;;1.15;;
73474;SDS011;61711;52.266;10.542;2022-10-16T10:11:58;4.97;;;1.20;;
73474;SDS011;61711;52.266;10.542;2022-10-16T10:17:02;2.78;;;1.35;;
73474;SDS011;61711;52.266;10.542;2022-10-16T10:22:25;1.85;;;1.20;;
73474;SDS011;61711;52.266;10.542;2022-10-16T10:27:25;2.00;;;1.13;;
73474;SDS011;61711;52.266;10.542;2022-10-16T10:30:18;2.10;;;1.20;;
73474;SDS011;61711;52.266;10.542;2022-10-16T10:32:48;3.22;;;1.10;;
73474;SDS011;61711;52.266;10.542;2022-10-16T10:35:25;3.15;;;1.08;;
73474;SDS011;61711;52.266;10.542;2022-10-16T10:37:58;2.33;;;1.08;;
73474;SDS011;61711;52.266;10.542;2022-10-16T10:45:46;2.38;;;1.20;;
73474;SDS011;61711;52.266;10.542;2022-10-16T10:56:11;2.33;;;0.90;;
73474;SDS011;61711;52.266;10.542;2022-10-16T11:06:50;2.38;;;1.00;;
73474;SDS011;61711;52.266;10.542;2022-10-16T11:11:45;2.38;;;0.90;;
73474;SDS011;61711;52.266;10.542;2022-10-16T11:14:16;3.45;;;1.10;;
73474;SDS011;61711;52.266;10.542;2022-10-16T11:16:48;1.45;;;0.90;;
73474;SDS011;61711;52.266;10.542;2022-10-16T11:24:34;1.08;;;0.98;;
73474;SDS011;61711;52.266;10.542;2022-10-16T11:27:02;2.95;;;1.10;;
73474;SDS011;61711;52.266;10.542;2022-10-16T11:29:29;2.45;;;0.90;;
73474;SDS011;61711;52.266;10.542;2022-10-16T11:32:00;1.15;;;0.73;;
73474;SDS011;61711;52.266;10.542;2022-10-16T11:34:48;4.78;;;0.93;;
73474;SDS011;61711;52.266;10.542;2022-10-16T11:37:30;2.83;;;1.40;;
73474;SDS011;61711;52.266;10.542;2022-10-16T11:39:58;4.60;;;2.92;;
73474;SDS011;61711;52.266;10.542;2022-10-16T11:42:37;2.03;;;1.00;;
73474;SDS011;61711;52.266;10.542;2022-10-16T11:45:48;2.42;;;1.10;;
73474;SDS011;61711;52.266;10.542;2022-10-16T11:47:57;2.42;;;0.82;;
73474;SDS011;61711;52.266;10.542;2022-10-16T11:50:29;1.88;;;0.75;;
73474;SDS011;61711;52.266;10.542;2022-10-16T11:55:27;1.70;;;0.70;;
73474;SDS011;61711;52.266;10.542;2022-10-16T12:08:15;2.03;;;0.90;;
73474;SDS011;61711;52.266;10.542;2022-10-16T12:10:43;2.92;;;0.75;;
73474;SDS011;61711;52.266;10.542;2022-10-16T12:18:39;1.42;;;0.85;;
73474;SDS011;61711;52.266;10.542;2022-10-16T12:21:06;2.88;;;1.25;;
73474;SDS011;61711;52.266;10.542;2022-10-16T12:23:33;1.65;;;1.10;;
73474;SDS011;61711;52.266;10.542;2022-10-16T12:26:02;1.48;;;1.00;;
73474;SDS011;61711;52.266;10.542;2022-10-16T12:28:29;4.35;;;0.90;;
73474;SDS011;61711;52.266;10.542;2022-10-16T12:31:06;2.75;;;1.05;;
73474;SDS011;61711;52.266;10.542;2022-10-16T12:33:37;1.65;;;0.90;;
73474;SDS011;61711;52.266;10.542;2022-10-16T12:36:11;3.20;;;0.80;;
73474;SDS011;61711;52.266;10.542;2022-10-16T12:38:46;2.13;;;0.90;;
73474;SDS011;61711;52.266;10.542;2022-10-16T12:41:12;1.83;;;0.90;;
73474;SDS011;61711;52.266;10.542;2022-10-16T12:43:40;4.57;;;0.90;;
73474;SDS011;61711;52.266;10.542;2022-10-16T12:48:39;2.38;;;0.90;;
73474;SDS011;61711;52.266;10.542;2022-10-16T12:53:37;2.27;;;0.87;;
73474;SDS011;61711;52.266;10.542;2022-10-16T13:01:07;2.63;;;0.90;;
73474;SDS011;61711;52.266;10.542;2022-10-16T13:16:49;2.42;;;1.73;;
73474;SDS011;61711;52.266;10.542;2022-10-16T13:19:25;2.15;;;1.40;;
73474;SDS011;61711;52.266;10.542;2022-10-16T13:22:39;3.25;;;1.40;;
73474;SDS011;61711;52.266;10.542;2022-10-16T13:24:52;2.72;;;1.30;;
73474;SDS011;61711;52.266;10.542;2022-10-16T13:29:52;2.67;;;1.50;;
73474;SDS011;61711;52.266;10.542;2022-10-16T13:32:20;2.63;;;1.25;;
73474;SDS011;61711;52.266;10.542;2022-10-16T13:34:48;2.60;;;1.40;;
73474;SDS011;61711;52.266;10.542;2022-10-16T13:37:21;2.67;;;1.30;;
73474;SDS011;61711;52.266;10.542;2022-10-16T13:39:48;3.33;;;1.70;;
73474;SDS011;61711;52.266;10.542;2022-10-16T13:42:22;2.20;;;1.45;;
73474;SDS011;61711;52.266;10.542;2022-10-16T13:44:49;2.00;;;1.40;;
73474;SDS011;61711;52.266;10.542;2022-10-16T13:47:20;4.75;;;1.50;;
73474;SDS011;61711;52.266;10.542;2022-10-16T13:49:46;1.88;;;1.33;;
73474;SDS011;61711;52.266;10.542;2022-10-16T13:52:20;2.70;;;1.45;;
73474;SDS011;61711;52.266;10.542;2022-10-16T13:54:46;2.08;;;1.10;;
73474;SDS011;61711;52.266;10.542;2022-10-16T13:57:13;3.63;;;1.17;;
73474;SDS011;61711;52.266;10.542;2022-10-16T13:59:39;1.83;;;1.25;;
73474;SDS011;61711;52.266;10.542;2022-10-16T14:02:52;2.13;;;1.00;;
73474;SDS011;61711;52.266;10.542;2022-10-16T14:04:52;4.65;;;2.63;;
73474;SDS011;61711;52.266;10.542;2022-10-16T14:07:29;1.80;;;1.00;;
73474;SDS011;61711;52.266;10.542;2022-10-16T14:09:58;1.30;;;0.90;;
73474;SDS011;61711;52.266;10.542;2022-10-16T14:12:24;1.67;;;1.20;;
73474;SDS011;61711;52.266;10.542;2022-10-16T14:14:51;3.22;;;0.88;;
73474;SDS011;61711;52.266;10.542;2022-10-16T14:17:30;1.50;;;0.90;;
73474;SDS011;61711;52.266;10.542;2022-10-16T14:19:58;1.02;;;0.82;;
73474;SDS011;61711;52.266;10.542;2022-10-16T14:22:35;2.63;;;1.00;;
73474;SDS011;61711;52.266;10.542;2022-10-16T14:25:02;2.75;;;1.00;;
73474;SDS011;61711;52.266;10.542;2022-10-16T14:27:39;2.05;;;0.90;;
73474;SDS011;61711;52.266;10.542;2022-10-16T14:32:34;4.45;;;1.00;;
73474;SDS011;61711;52.266;10.542;2022-10-16T14:35:00;1.17;;;0.90;;
73474;SDS011;61711;52.266;10.542;2022-10-16T14:37:27;2.75;;;0.75;;
73474;SDS011;61711;52.266;10.542;2022-10-16T14:39:54;2.13;;;1.00;;
73474;SDS011;61711;52.266;10.542;2022-10-16T14:42:21;2.38;;;1.10;;
73474;SDS011;61711;52.266;10.542;2022-10-16T14:44:49;2.47;;;1.27;;
73474;SDS011;61711;52.266;10.542;2022-10-16T14:47:18;2.83;;;1.33;;
73474;SDS011;61711;52.266;10.542;2022-10-16T14:49:50;3.08;;;1.70;;
73474;SDS011;61711;52.266;10.542;2022-10-16T14:52:16;2.65;;;1.50;;
73474;SDS011;61711;52.266;10.542;2022-10-16T14:54:42;2.38;;;1.70;;
73474;SDS011;61711;52.266;10.542;2022-10-16T14:57:18;4.75;;;2.08;;
73474;SDS011;61711;52.266;10.542;2022-10-16T14:59:45;2.88;;;1.45;;
73474;SDS011;61711;52.266;10.542;2022-10-16T15:04:38;5.63;;;1.60;;
73474;SDS011;61711;52.266;10.542;2022-10-16T15:07:04;2.70;;;1.40;;
73474;SDS011;61711;52.266;10.542;2022-10-16T15:09:30;4.45;;;2.15;;
73474;SDS011;61711;52.266;10.542;2022-10-16T15:11:56;2.85;;;1.70;;
73474;SDS011;61711;52.266;10.542;2022-10-16T15:14:22;2.95;;;1.88;;
73474;SDS011;61711;52.266;10.542;2022-10-16T15:16:48;1.65;;;1.48;;
73474;SDS011;61711;52.266;10.542;2022-10-16T15:19:14;2.65;;;1.30;;
73474;SDS011;61711;52.266;10.542;2022-10-16T15:21:40;2.85;;;1.30;;
73474;SDS011;61711;52.266;10.542;2022-10-16T15:24:13;1.50;;;1.20;;
73474;SDS011;61711;52.266;10.542;2022-10-16T15:26:39;2.65;;;1.30;;
73474;SDS011;61711;52.266;10.542;2022-10-16T15:29:05;2.60;;;1.30;;
73474;SDS011;61711;52.266;10.542;2022-10-16T15:31:32;3.70;;;1.40;;
73474;SDS011;61711;52.266;10.542;2022-10-16T15:33:58;4.60;;;1.50;;
73474;SDS011;61711;52.266;10.542;2022-10-16T15:36:29;3.17;;;1.40;;
73474;SDS011;61711;52.266;10.542;2022-10-16T15:38:56;3.00;;;1.75;;
73474;SDS011;61711;52.266;10.542;2022-10-16T15:41:22;2.08;;;1.50;;
73474;SDS011;61711;52.266;10.542;2022-10-16T15:43:48;3.25;;;1.58;;
73474;SDS011;61711;52.266;10.542;2022-10-16T15:46:15;2.05;;;1.55;;
73474;SDS011;61711;52.266;10.542;2022-10-16T15:48:42;4.43;;;1.70;;
73474;SDS011;61711;52.266;10.542;2022-10-16T15:51:09;2.40;;;1.70;;
73474;SDS011;61711;52.266;10.542;2022-10-16T15:53:35;4.70;;;2.08;;
73474;SDS011;61711;52.266;10.542;2022-10-16T15:56:05;2.38;;;1.65;;
73474;SDS011;61711;52.266;10.542;2022-10-16T15:58:31;3.38;;;1.70;;
73474;SDS011;61711;52.266;10.542;2022-10-16T16:00:58;3.05;;;1.70;;
73474;SDS011;61711;52.266;10.542;2022-10-16T16:03:26;3.08;;;1.70;;
73474;SDS011;61711;52.266;10.542;2022-10-16T16:05:52;3.67;;;1.73;;
73474;SDS011;61711;52.266;10.542;2022-10-16T16:08:18;4.38;;;1.88;;
73474;SDS011;61711;52.266;10.542;2022-10-16T16:10:44;2.28;;;1.52;;
73474;SDS011;61711;52.266;10.542;2022-10-16T16:13:10;3.00;;;1.70;;
73474;SDS011;61711;52.266;10.542;2022-10-16T16:15:39;6.72;;;1.85;;
73474;SDS011;61711;52.266;10.542;2022-10-16T16:18:05;4.55;;;1.63;;
73474;SDS011;61711;52.266;10.542;2022-10-16T16:20:32;5.90;;;2.67;;
73474;SDS011;61711;52.266;10.542;2022-10-16T16:22:58;3.08;;;2.20;;
73474;SDS011;61711;52.266;10.542;2022-10-16T16:25:23;2.45;;;1.92;;
73474;SDS011;61711;52.266;10.542;2022-10-16T16:27:50;14.05;;;9.63;;
73474;SDS011;61711;52.266;10.542;2022-10-16T16:30:16;8.40;;;6.47;;
73474;SDS011;61711;52.266;10.542;2022-10-16T16:32:44;7.22;;;6.13;;